Time;durP1;ratioP1;P1;durP2;ratioP2;P2;SDS_P1;SDS_P2;PMS_P1;PMS_P2;Temp;Humidity;BMP_temperature;BMP_pressure;BME280_temperature;BME280_humidity;BME280_pressure;Samples;Min_cycle;Max_cycle;Signal;HPM_P1;HPM_P2
2023/08/06 00:00:19;;;;;;;8.27;1.88;;;;;;;;;;5052555;28;20017;-72
2023/08/06 00:02:44;;;;;;;2.50;1.73;;;;;;;;;;5052040;28;20032;-72
2023/08/06 00:05:09;;;;;;;4.87;2.20;;;;;;;;;;5050087;28;20025;-72
2023/08/06 00:07:35;;;;;;;4.50;2.57;;;;;;;;;;5047617;28;21042;-72
2023/08/06 00:10:00;;;;;;;5.13;2.60;;;;;;;;;;5050873;28;20312;-72
2023/08/06 00:12:25;;;;;;;6.97;2.60;;;;;;;;;;5048989;28;20272;-72
2023/08/06 00:14:51;;;;;;;8.30;3.25;;;;;;;;;;5051423;28;20823;-72
2023/08/06 00:17:16;;;;;;;5.18;2.60;;;;;;;;;;5049903;28;20032;-72
2023/08/06 00:19:41;;;;;;;5.03;2.17;;;;;;;;;;5049024;28;20036;-72
2023/08/06 00:22:06;;;;;;;10.87;2.23;;;;;;;;;;5049635;28;20401;-72
2023/08/06 00:24:32;;;;;;;7.28;2.33;;;;;;;;;;5051429;28;20271;-72
2023/08/06 00:26:57;;;;;;;13.30;2.20;;;;;;;;;;5049849;28;20035;-72
2023/08/06 00:29:22;;;;;;;6.47;2.60;;;;;;;;;;5050631;28;20283;-72
2023/08/06 00:31:47;;;;;;;4.50;2.30;;;;;;;;;;5050233;28;20286;-72
2023/08/06 00:34:12;;;;;;;9.30;2.60;;;;;;;;;;5050638;28;20017;-72
2023/08/06 00:36:37;;;;;;;7.03;2.43;;;;;;;;;;5048877;28;20760;-72
2023/08/06 00:39:03;;;;;;;5.37;2.20;;;;;;;;;;5050137;28;20268;-72
2023/08/06 00:41:28;;;;;;;10.13;2.83;;;;;;;;;;5051236;28;20709;-72
2023/08/06 00:43:53;;;;;;;5.47;2.20;;;;;;;;;;5050334;28;20550;-72
2023/08/06 00:46:18;;;;;;;9.10;2.27;;;;;;;;;;5051037;28;20544;-72
2023/08/06 00:48:43;;;;;;;11.40;2.80;;;;;;;;;;5048408;28;20306;-72
2023/08/06 00:51:10;;;;;;;5.68;2.13;;;;;;;;;;5050222;28;20029;-72
2023/08/06 00:53:35;;;;;;;5.35;2.72;;;;;;;;;;5049389;28;20013;-72
2023/08/06 00:56:01;;;;;;;6.72;3.08;;;;;;;;;;5048720;28;20071;-72
2023/08/06 00:58:26;;;;;;;3.63;1.88;;;;;;;;;;5048363;28;20067;-72
2023/08/06 01:00:51;;;;;;;4.78;1.60;;;;;;;;;;5049418;28;20019;-72
2023/08/06 01:03:16;;;;;;;6.67;2.57;;;;;;;;;;5049698;28;20513;-72
2023/08/06 01:05:42;;;;;;;4.10;2.30;;;;;;;;;;5047506;28;20271;-72
2023/08/06 01:08:16;;;;;;;8.50;2.45;;;;;;;;;;5046472;28;20322;-72
2023/08/06 01:10:59;;;;;;;5.18;2.53;;;;;;;;;;5048679;28;20029;-72
2023/08/06 01:13:46;;;;;;;6.13;2.83;;;;;;;;;;5049634;28;20035;-72
2023/08/06 01:16:13;;;;;;;4.80;2.38;;;;;;;;;;5051039;28;20096;-72
2023/08/06 01:18:39;;;;;;;8.30;2.83;;;;;;;;;;5048989;28;20021;-72
2023/08/06 01:21:04;;;;;;;6.40;2.90;;;;;;;;;;5048504;28;20520;-72
2023/08/06 01:23:29;;;;;;;5.00;2.60;;;;;;;;;;5049016;28;20025;-72
2023/08/06 01:26:10;;;;;;;6.97;2.33;;;;;;;;;;5049276;28;20508;-72
2023/08/06 01:28:54;;;;;;;4.55;1.98;;;;;;;;;;5048469;28;20477;-72
2023/08/06 01:31:29;;;;;;;6.65;1.88;;;;;;;;;;5049080;28;20132;-72
2023/08/06 01:33:56;;;;;;;6.80;2.45;;;;;;;;;;5048053;28;20111;-72
2023/08/06 01:36:21;;;;;;;10.70;3.00;;;;;;;;;;5048860;28;20109;-72
2023/08/06 01:38:46;;;;;;;4.03;2.20;;;;;;;;;;5043530;28;20108;-72
2023/08/06 01:41:12;;;;;;;4.03;2.58;;;;;;;;;;5049068;28;20466;-72
2023/08/06 01:43:37;;;;;;;6.25;2.85;;;;;;;;;;5047935;28;20021;-72
2023/08/06 01:46:02;;;;;;;3.73;2.33;;;;;;;;;;5049528;28;20534;-72
2023/08/06 01:48:27;;;;;;;7.97;1.75;;;;;;;;;;5048159;28;20287;-72
2023/08/06 01:50:52;;;;;;;4.40;2.80;;;;;;;;;;5049792;28;20025;-72
2023/08/06 01:53:18;;;;;;;8.17;2.87;;;;;;;;;;5048662;28;20322;-72
2023/08/06 01:55:47;;;;;;;6.37;2.63;;;;;;;;;;5049236;28;20066;-72
2023/08/06 01:58:12;;;;;;;6.50;2.88;;;;;;;;;;5048551;28;20279;-72
2023/08/06 02:00:37;;;;;;;7.77;2.43;;;;;;;;;;5049750;28;20031;-72
2023/08/06 02:03:02;;;;;;;5.30;3.00;;;;;;;;;;5049041;28;20279;-72
2023/08/06 02:05:28;;;;;;;4.87;2.60;;;;;;;;;;5048623;28;20299;-72
2023/08/06 02:07:53;;;;;;;4.93;2.83;;;;;;;;;;5048589;28;20309;-72
2023/08/06 02:10:18;;;;;;;7.60;2.80;;;;;;;;;;5047898;28;20021;-72
2023/08/06 02:12:43;;;;;;;5.17;3.00;;;;;;;;;;5047312;28;20271;-72
2023/08/06 02:15:08;;;;;;;5.53;2.60;;;;;;;;;;5049570;28;20263;-72
2023/08/06 02:17:34;;;;;;;5.13;3.10;;;;;;;;;;5047667;28;20267;-72
2023/08/06 02:19:59;;;;;;;7.97;2.23;;;;;;;;;;5049132;28;20021;-72
2023/08/06 02:22:24;;;;;;;6.73;3.13;;;;;;;;;;5049010;28;20663;-72
2023/08/06 02:24:49;;;;;;;9.30;3.03;;;;;;;;;;5048957;28;20294;-72
2023/08/06 02:27:14;;;;;;;6.10;2.45;;;;;;;;;;5049746;28;20017;-72
2023/08/06 02:29:40;;;;;;;8.57;2.60;;;;;;;;;;5047398;28;20560;-72
2023/08/06 02:32:06;;;;;;;8.23;2.72;;;;;;;;;;5048070;28;20358;-72
2023/08/06 02:34:31;;;;;;;5.05;2.30;;;;;;;;;;5049754;28;20041;-72
2023/08/06 02:36:56;;;;;;;6.77;2.33;;;;;;;;;;5048040;28;20051;-72
2023/08/06 02:39:21;;;;;;;5.60;3.17;;;;;;;;;;5046494;28;20347;-72
2023/08/06 02:41:47;;;;;;;4.35;2.53;;;;;;;;;;5050281;28;20629;-72
2023/08/06 02:44:12;;;;;;;7.65;2.55;;;;;;;;;;5051009;28;20378;-72
2023/08/06 02:46:38;;;;;;;5.33;2.43;;;;;;;;;;5051955;28;20025;-72
2023/08/06 02:49:03;;;;;;;5.63;2.53;;;;;;;;;;5048457;28;20036;-72
2023/08/06 02:51:28;;;;;;;6.13;2.20;;;;;;;;;;5051687;28;20032;-72
2023/08/06 02:53:53;;;;;;;3.83;2.33;;;;;;;;;;5052060;28;20025;-72
2023/08/06 02:56:18;;;;;;;5.00;2.07;;;;;;;;;;5052164;28;20017;-72
2023/08/06 02:58:43;;;;;;;4.00;1.97;;;;;;;;;;5051037;28;20889;-72
2023/08/06 03:01:09;;;;;;;6.07;2.40;;;;;;;;;;5051780;28;20074;-72
2023/08/06 03:03:34;;;;;;;4.00;2.10;;;;;;;;;;5052601;28;20283;-72
2023/08/06 03:05:59;;;;;;;5.93;2.08;;;;;;;;;;5051861;28;20271;-72
2023/08/06 03:08:25;;;;;;;6.65;2.15;;;;;;;;;;5051995;28;20017;-72
2023/08/06 03:10:50;;;;;;;10.15;4.07;;;;;;;;;;5049861;28;20365;-72
2023/08/06 03:13:16;;;;;;;5.70;2.53;;;;;;;;;;5051844;28;20023;-72
2023/08/06 03:15:41;;;;;;;4.78;2.42;;;;;;;;;;5051171;28;20291;-72
2023/08/06 03:18:06;;;;;;;3.87;2.03;;;;;;;;;;5051542;28;20024;-72
2023/08/06 03:20:32;;;;;;;7.40;2.60;;;;;;;;;;5050428;28;20272;-72
2023/08/06 03:22:57;;;;;;;5.13;2.22;;;;;;;;;;5050810;28;20023;-72
2023/08/06 03:25:22;;;;;;;5.18;2.47;;;;;;;;;;5050672;28;20079;-72
2023/08/06 03:27:48;;;;;;;6.38;2.50;;;;;;;;;;5050964;28;20053;-72
2023/08/06 03:30:13;;;;;;;7.37;2.70;;;;;;;;;;5050614;28;20112;-72
2023/08/06 03:32:38;;;;;;;4.27;2.77;;;;;;;;;;5054643;28;20811;-72
2023/08/06 03:35:03;;;;;;;4.50;2.40;;;;;;;;;;5034572;28;20252;-72
2023/08/06 03:37:28;;;;;;;6.75;3.13;;;;;;;;;;5046856;28;20291;-72
2023/08/06 03:39:54;;;;;;;5.13;2.47;;;;;;;;;;5048632;28;20017;-72
2023/08/06 03:42:19;;;;;;;7.03;2.93;;;;;;;;;;5051798;28;20270;-72
2023/08/06 03:44:44;;;;;;;9.43;3.27;;;;;;;;;;5051403;28;20812;-72
2023/08/06 03:47:09;;;;;;;9.87;3.13;;;;;;;;;;5051787;28;20264;-72
2023/08/06 03:49:34;;;;;;;12.32;2.78;;;;;;;;;;5049790;28;20290;-72
2023/08/06 03:52:00;;;;;;;2.88;1.55;;;;;;;;;;5050070;28;20029;-72
2023/08/06 03:54:25;;;;;;;6.90;2.27;;;;;;;;;;5032510;28;20073;-72
2023/08/06 03:56:50;;;;;;;7.35;2.50;;;;;;;;;;5048625;28;20329;-72
2023/08/06 03:59:15;;;;;;;7.18;2.90;;;;;;;;;;5050045;28;20017;-72
2023/08/06 04:01:40;;;;;;;7.57;2.47;;;;;;;;;;5051805;28;20092;-72
2023/08/06 04:04:05;;;;;;;4.03;2.53;;;;;;;;;;5046788;28;20786;-72
2023/08/06 04:06:31;;;;;;;4.40;2.30;;;;;;;;;;5047942;28;20283;-72
2023/08/06 04:08:56;;;;;;;13.10;2.80;;;;;;;;;;5046009;28;20260;-72
2023/08/06 04:11:21;;;;;;;5.17;2.60;;;;;;;;;;5047639;28;20839;-72
2023/08/06 04:13:46;;;;;;;4.95;2.35;;;;;;;;;;5044041;28;20283;-72
2023/08/06 04:16:13;;;;;;;3.80;1.30;;;;;;;;;;5048352;28;20037;-72
2023/08/06 04:18:38;;;;;;;8.48;3.13;;;;;;;;;;5047847;28;20052;-72
2023/08/06 04:21:03;;;;;;;9.10;2.47;;;;;;;;;;5048657;28;20059;-72
2023/08/06 04:23:28;;;;;;;3.75;2.28;;;;;;;;;;5051429;28;20262;-73
2023/08/06 04:25:57;;;;;;;4.53;1.90;;;;;;;;;;5049542;28;20108;-73
2023/08/06 04:28:22;;;;;;;5.35;2.60;;;;;;;;;;5049153;28;20258;-73
2023/08/06 04:30:47;;;;;;;4.67;2.03;;;;;;;;;;5050422;28;20037;-73
2023/08/06 04:33:12;;;;;;;10.77;2.55;;;;;;;;;;5051497;28;20297;-73
2023/08/06 04:35:38;;;;;;;6.17;3.33;;;;;;;;;;5048773;28;20025;-73
2023/08/06 04:38:03;;;;;;;8.47;2.93;;;;;;;;;;5050853;28;20643;-73
2023/08/06 04:40:28;;;;;;;6.18;2.50;;;;;;;;;;5047874;28;20279;-73
2023/08/06 04:42:53;;;;;;;10.40;3.37;;;;;;;;;;5050468;28;20549;-73
2023/08/06 04:45:18;;;;;;;5.83;2.83;;;;;;;;;;5051194;28;20267;-73
2023/08/06 04:47:43;;;;;;;5.70;2.37;;;;;;;;;;5048983;28;20279;-73
2023/08/06 04:50:09;;;;;;;8.70;3.13;;;;;;;;;;5046811;28;20333;-73
2023/08/06 04:52:34;;;;;;;5.32;2.40;;;;;;;;;;5049715;28;20020;-73
2023/08/06 04:54:59;;;;;;;6.07;2.57;;;;;;;;;;5051036;28;20100;-73
2023/08/06 04:57:24;;;;;;;10.93;2.80;;;;;;;;;;5048857;28;20020;-73
2023/08/06 04:59:50;;;;;;;5.07;2.90;;;;;;;;;;5048179;28;20036;-73
2023/08/06 05:02:15;;;;;;;6.60;3.13;;;;;;;;;;5050794;28;20013;-73
2023/08/06 05:04:40;;;;;;;9.02;2.78;;;;;;;;;;5049899;28;20146;-73
2023/08/06 05:07:05;;;;;;;9.73;2.93;;;;;;;;;;5049204;28;20107;-73
2023/08/06 05:09:31;;;;;;;9.60;3.33;;;;;;;;;;5049823;28;20272;-73
2023/08/06 05:11:56;;;;;;;12.47;3.97;;;;;;;;;;5045954;28;20364;-73
2023/08/06 05:14:21;;;;;;;9.43;4.05;;;;;;;;;;5049593;28;20740;-73
2023/08/06 05:16:46;;;;;;;8.23;2.72;;;;;;;;;;5049468;28;20024;-73
2023/08/06 05:19:11;;;;;;;6.40;2.83;;;;;;;;;;5044039;28;20040;-73
2023/08/06 05:21:36;;;;;;;8.47;3.10;;;;;;;;;;5047877;28;20328;-73
2023/08/06 05:24:02;;;;;;;7.03;3.00;;;;;;;;;;5050642;28;20354;-73
2023/08/06 05:26:27;;;;;;;5.53;2.90;;;;;;;;;;5048387;28;20278;-73
2023/08/06 05:28:52;;;;;;;5.77;2.50;;;;;;;;;;5050105;28;20032;-73
2023/08/06 05:31:17;;;;;;;6.23;2.20;;;;;;;;;;5047855;28;20033;-73
2023/08/06 05:33:42;;;;;;;4.90;2.30;;;;;;;;;;5048296;28;20285;-73
2023/08/06 05:36:08;;;;;;;5.13;2.22;;;;;;;;;;5050208;28;20748;-73
2023/08/06 05:38:33;;;;;;;7.15;2.45;;;;;;;;;;5050056;28;20358;-73
2023/08/06 05:40:58;;;;;;;8.57;2.55;;;;;;;;;;5047242;28;20567;-73
2023/08/06 05:43:23;;;;;;;7.60;2.37;;;;;;;;;;5050486;28;20470;-73
2023/08/06 05:45:49;;;;;;;6.17;2.97;;;;;;;;;;5048632;28;20283;-73
2023/08/06 05:48:14;;;;;;;5.85;2.30;;;;;;;;;;5048610;28;20264;-73
2023/08/06 05:50:39;;;;;;;6.40;2.87;;;;;;;;;;5050110;28;20367;-73
2023/08/06 05:53:05;;;;;;;7.50;2.67;;;;;;;;;;5047826;28;20334;-73
2023/08/06 05:55:32;;;;;;;6.10;2.60;;;;;;;;;;5049080;28;20037;-72
2023/08/06 05:57:57;;;;;;;6.45;2.15;;;;;;;;;;5048289;28;20303;-73
2023/08/06 06:00:22;;;;;;;4.65;2.05;;;;;;;;;;5047556;28;20118;-73
2023/08/06 06:02:47;;;;;;;7.25;2.53;;;;;;;;;;5043631;28;20017;-73
2023/08/06 06:05:13;;;;;;;5.80;2.27;;;;;;;;;;5042640;28;20025;-73
2023/08/06 06:07:38;;;;;;;6.55;2.63;;;;;;;;;;5045775;28;20676;-73
2023/08/06 06:10:03;;;;;;;10.60;2.67;;;;;;;;;;5047029;28;20547;-73
2023/08/06 06:12:29;;;;;;;10.13;2.80;;;;;;;;;;5044213;28;20021;-73
2023/08/06 06:14:54;;;;;;;4.28;2.28;;;;;;;;;;5044450;28;20114;-73
2023/08/06 06:17:19;;;;;;;4.03;2.37;;;;;;;;;;5045596;28;20021;-72
2023/08/06 06:19:44;;;;;;;5.17;2.43;;;;;;;;;;5047177;28;20263;-72
2023/08/06 06:22:09;;;;;;;5.33;2.63;;;;;;;;;;5050665;28;20862;-72
2023/08/06 06:24:34;;;;;;;9.47;2.33;;;;;;;;;;5053791;28;20259;-72
2023/08/06 06:27:00;;;;;;;9.23;2.17;;;;;;;;;;5054031;28;20251;-72
2023/08/06 06:29:25;;;;;;;4.55;2.30;;;;;;;;;;5051834;28;20748;-72
2023/08/06 06:31:50;;;;;;;4.83;2.60;;;;;;;;;;5053759;28;20025;-72
2023/08/06 06:34:15;;;;;;;4.57;2.07;;;;;;;;;;5050869;28;20285;-72
2023/08/06 06:36:40;;;;;;;7.83;1.83;;;;;;;;;;5053423;28;20013;-72
2023/08/06 06:39:06;;;;;;;5.40;2.13;;;;;;;;;;5053515;28;20650;-72
2023/08/06 06:41:32;;;;;;;2.80;1.58;;;;;;;;;;5050390;28;20017;-72
2023/08/06 06:43:58;;;;;;;5.85;2.45;;;;;;;;;;5050093;28;20382;-72
2023/08/06 06:46:23;;;;;;;8.70;2.00;;;;;;;;;;5051853;28;20017;-71
2023/08/06 06:48:48;;;;;;;3.20;2.03;;;;;;;;;;5047251;28;20037;-71
2023/08/06 06:51:13;;;;;;;5.90;1.70;;;;;;;;;;5048163;28;20155;-72
2023/08/06 06:53:38;;;;;;;4.30;1.70;;;;;;;;;;5049997;28;20298;-72
2023/08/06 06:56:04;;;;;;;8.97;2.63;;;;;;;;;;5052225;28;20267;-72
2023/08/06 06:58:30;;;;;;;6.43;2.08;;;;;;;;;;5051113;28;20466;-72
2023/08/06 07:00:55;;;;;;;5.35;2.63;;;;;;;;;;5048545;28;20017;-72
2023/08/06 07:03:20;;;;;;;6.20;2.17;;;;;;;;;;5049836;28;20017;-72
2023/08/06 07:05:45;;;;;;;5.03;2.20;;;;;;;;;;5053013;28;20056;-72
2023/08/06 07:08:11;;;;;;;5.23;2.47;;;;;;;;;;5052936;28;20025;-72
2023/08/06 07:10:36;;;;;;;7.15;1.92;;;;;;;;;;5052323;28;20271;-72
2023/08/06 07:13:01;;;;;;;3.15;1.98;;;;;;;;;;5052918;28;20032;-72
2023/08/06 07:15:26;;;;;;;6.13;2.10;;;;;;;;;;5050500;28;20021;-72
2023/08/06 07:17:52;;;;;;;5.63;2.47;;;;;;;;;;5052635;28;20795;-72
2023/08/06 07:20:17;;;;;;;4.45;2.30;;;;;;;;;;5052969;28;20252;-72
2023/08/06 07:22:43;;;;;;;4.85;2.40;;;;;;;;;;5051124;28;20143;-72
2023/08/06 07:25:08;;;;;;;13.25;2.50;;;;;;;;;;5051198;28;20024;-72
2023/08/06 07:27:33;;;;;;;6.73;2.33;;;;;;;;;;5047264;28;20013;-72
2023/08/06 07:29:59;;;;;;;4.70;2.13;;;;;;;;;;5051455;28;20279;-72
2023/08/06 07:32:24;;;;;;;3.30;2.13;;;;;;;;;;5050613;28;20268;-72
2023/08/06 07:34:49;;;;;;;6.97;2.45;;;;;;;;;;5050747;28;20555;-72
2023/08/06 07:37:15;;;;;;;4.00;2.08;;;;;;;;;;5052361;28;20100;-72
2023/08/06 07:39:41;;;;;;;3.70;2.25;;;;;;;;;;5051549;28;20430;-72
2023/08/06 07:42:07;;;;;;;4.72;2.50;;;;;;;;;;5048120;28;20021;-72
2023/08/06 07:44:32;;;;;;;5.75;2.15;;;;;;;;;;5051609;28;20496;-71
2023/08/06 07:46:57;;;;;;;3.45;2.30;;;;;;;;;;5051598;28;20154;-72
2023/08/06 07:49:22;;;;;;;5.37;2.67;;;;;;;;;;5052407;28;20501;-72
2023/08/06 07:51:47;;;;;;;4.07;2.70;;;;;;;;;;5052415;28;20262;-72
2023/08/06 07:54:13;;;;;;;7.90;2.13;;;;;;;;;;5049318;28;20326;-72
2023/08/06 07:56:38;;;;;;;5.72;3.08;;;;;;;;;;5049036;28;20744;-72
2023/08/06 07:59:03;;;;;;;3.95;3.00;;;;;;;;;;5051932;28;20471;-71
2023/08/06 08:01:29;;;;;;;8.03;3.03;;;;;;;;;;5051063;28;20386;-71
2023/08/06 08:03:54;;;;;;;5.93;2.90;;;;;;;;;;5050656;28;20021;-71
2023/08/06 08:06:19;;;;;;;3.70;2.42;;;;;;;;;;5051798;28;20264;-71
2023/08/06 08:08:44;;;;;;;2.87;1.93;;;;;;;;;;5049178;28;20035;-71
2023/08/06 08:11:09;;;;;;;4.82;2.22;;;;;;;;;;5050343;28;20267;-72
2023/08/06 08:13:35;;;;;;;4.88;2.40;;;;;;;;;;5051527;28;20025;-71
2023/08/06 08:16:00;;;;;;;3.43;2.20;;;;;;;;;;5050462;28;20048;-72
2023/08/06 08:18:26;;;;;;;3.35;1.77;;;;;;;;;;5050432;28;20343;-72
2023/08/06 08:20:51;;;;;;;2.95;1.58;;;;;;;;;;5051492;28;20035;-72
2023/08/06 08:23:16;;;;;;;6.50;1.67;;;;;;;;;;5049216;28;20028;-72
2023/08/06 08:25:41;;;;;;;1.20;0.93;;;;;;;;;;5049414;28;20029;-72
2023/08/06 08:28:07;;;;;;;3.03;1.55;;;;;;;;;;5049315;28;20020;-72
2023/08/06 08:30:32;;;;;;;2.58;1.45;;;;;;;;;;5048292;28;20052;-72
2023/08/06 08:32:57;;;;;;;2.72;1.65;;;;;;;;;;5047422;28;20025;-72
2023/08/06 08:35:22;;;;;;;4.03;1.47;;;;;;;;;;5049295;28;20074;-72
2023/08/06 08:37:48;;;;;;;2.67;1.90;;;;;;;;;;5050735;28;20263;-72
2023/08/06 08:40:14;;;;;;;5.15;1.95;;;;;;;;;;5047755;28;20009;-72
2023/08/06 08:42:39;;;;;;;2.60;1.75;;;;;;;;;;5050965;28;20059;-72
2023/08/06 08:45:06;;;;;;;4.33;2.47;;;;;;;;;;5050209;28;20437;-72
2023/08/06 08:47:31;;;;;;;2.88;1.50;;;;;;;;;;5045535;28;20659;-72
2023/08/06 08:49:57;;;;;;;1.10;0.90;;;;;;;;;;5045424;28;20078;-72
2023/08/06 08:52:23;;;;;;;1.83;1.13;;;;;;;;;;5046719;28;20025;-72
2023/08/06 08:54:51;;;;;;;4.13;2.00;;;;;;;;;;5043108;28;20426;-72
2023/08/06 08:57:17;;;;;;;2.40;1.33;;;;;;;;;;5046448;28;20021;-72
2023/08/06 08:59:42;;;;;;;3.80;1.60;;;;;;;;;;5046913;28;20025;-72
2023/08/06 09:02:09;;;;;;;3.10;1.47;;;;;;;;;;5042869;28;20418;-72
2023/08/06 09:04:36;;;;;;;7.45;1.98;;;;;;;;;;5046352;28;20021;-72
2023/08/06 09:07:02;;;;;;;3.78;1.85;;;;;;;;;;5048630;28;20021;-72
2023/08/06 09:09:30;;;;;;;3.63;2.40;;;;;;;;;;5047648;28;20082;-72
2023/08/06 09:11:57;;;;;;;4.35;2.50;;;;;;;;;;5045279;28;20028;-74
2023/08/06 09:14:22;;;;;;;5.32;2.83;;;;;;;;;;5042859;28;20027;-74
2023/08/06 09:16:48;;;;;;;4.83;2.93;;;;;;;;;;5045736;28;20037;-73
2023/08/06 09:19:15;;;;;;;6.80;3.65;;;;;;;;;;5045622;28;20079;-74
2023/08/06 09:21:40;;;;;;;10.63;3.53;;;;;;;;;;5041420;28;20063;-73
2023/08/06 09:24:10;;;;;;;7.13;3.97;;;;;;;;;;5050412;28;20045;-73
2023/08/06 09:26:36;;;;;;;8.67;3.87;;;;;;;;;;5043705;28;20055;-73
2023/08/06 09:29:01;;;;;;;6.22;3.60;;;;;;;;;;5048459;28;20283;-74
2023/08/06 09:31:33;;;;;;;7.82;4.45;;;;;;;;;;5045107;28;20017;-74
2023/08/06 09:33:59;;;;;;;7.72;4.50;;;;;;;;;;5041463;28;20027;-74
2023/08/06 09:36:24;;;;;;;6.00;3.83;;;;;;;;;;5047838;28;20028;-74
2023/08/06 09:38:49;;;;;;;8.57;4.27;;;;;;;;;;5040935;28;20024;-74
2023/08/06 09:41:25;;;;;;;8.83;3.83;;;;;;;;;;5047376;28;20287;-77
2023/08/06 09:43:51;;;;;;;5.10;3.85;;;;;;;;;;5043821;28;20338;-75
2023/08/06 09:46:16;;;;;;;5.30;3.87;;;;;;;;;;5048521;28;20061;-74
2023/08/06 09:48:44;;;;;;;8.48;4.22;;;;;;;;;;5048213;28;20071;-74
2023/08/06 09:51:09;;;;;;;7.75;4.28;;;;;;;;;;5048501;28;20028;-74
2023/08/06 09:53:36;;;;;;;6.03;3.75;;;;;;;;;;5030371;28;20025;-74
2023/08/06 09:56:02;;;;;;;4.97;2.50;;;;;;;;;;5048974;28;20019;-74
2023/08/06 09:58:27;;;;;;;4.50;2.90;;;;;;;;;;5048112;28;20092;-74
2023/08/06 10:00:53;;;;;;;4.55;3.10;;;;;;;;;;5046349;28;20071;-74
2023/08/06 10:03:18;;;;;;;3.63;2.67;;;;;;;;;;5045058;28;20024;-73
2023/08/06 10:05:44;;;;;;;5.95;3.53;;;;;;;;;;5048280;28;20023;-73
2023/08/06 10:08:09;;;;;;;5.60;3.55;;;;;;;;;;5048386;28;20027;-73
2023/08/06 10:10:34;;;;;;;6.30;3.73;;;;;;;;;;5048233;28;20033;-74
2023/08/06 10:13:01;;;;;;;7.43;4.27;;;;;;;;;;5048624;28;20294;-74
2023/08/06 10:15:27;;;;;;;7.22;3.40;;;;;;;;;;5046944;28;20358;-74
2023/08/06 10:17:54;;;;;;;7.40;3.90;;;;;;;;;;5042489;28;20067;-74
2023/08/06 10:20:21;;;;;;;3.17;2.00;;;;;;;;;;5048261;28;20100;-74
2023/08/06 10:22:46;;;;;;;3.90;2.17;;;;;;;;;;5048420;28;20084;-74
2023/08/06 10:25:15;;;;;;;4.87;1.00;;;;;;;;;;5048997;28;20486;-74
2023/08/06 10:27:53;;;;;;;1.50;0.80;;;;;;;;;;5047249;28;20699;-74
2023/08/06 10:30:28;;;;;;;4.80;1.17;;;;;;;;;;5048177;28;20458;-74
2023/08/06 10:33:01;;;;;;;1.92;0.80;;;;;;;;;;5047136;28;20103;-74
2023/08/06 10:35:30;;;;;;;0.90;0.60;;;;;;;;;;5048004;28;20025;-74
2023/08/06 10:37:59;;;;;;;1.65;0.63;;;;;;;;;;5045797;28;20262;-74
2023/08/06 10:40:26;;;;;;;1.37;0.60;;;;;;;;;;5046128;28;20048;-74
2023/08/06 10:42:51;;;;;;;1.15;0.60;;;;;;;;;;5048035;28;20532;-75
2023/08/06 10:45:17;;;;;;;2.92;0.55;;;;;;;;;;5047000;28;20048;-74
2023/08/06 10:47:43;;;;;;;1.70;1.20;;;;;;;;;;5047468;28;20417;-74
2023/08/06 10:50:11;;;;;;;2.25;1.20;;;;;;;;;;5048390;28;20074;-74
2023/08/06 10:52:36;;;;;;;2.17;1.27;;;;;;;;;;5045406;28;20437;-74
2023/08/06 10:55:02;;;;;;;2.78;1.75;;;;;;;;;;5045281;28;20021;-74
2023/08/06 10:57:27;;;;;;;2.88;2.03;;;;;;;;;;5044838;28;20075;-74
2023/08/06 10:59:52;;;;;;;2.47;1.93;;;;;;;;;;5042612;28;20025;-74
2023/08/06 11:02:17;;;;;;;2.73;1.43;;;;;;;;;;5049553;28;20835;-74
2023/08/06 11:04:42;;;;;;;1.88;1.42;;;;;;;;;;5052370;28;20279;-74
2023/08/06 11:07:08;;;;;;;3.08;1.50;;;;;;;;;;5050473;28;20021;-74
2023/08/06 11:09:33;;;;;;;4.77;1.33;;;;;;;;;;5051591;28;20512;-74
2023/08/06 11:11:58;;;;;;;1.73;1.20;;;;;;;;;;5047282;28;20334;-74
2023/08/06 11:14:23;;;;;;;1.38;1.08;;;;;;;;;;5051852;28;20275;-74
2023/08/06 11:16:50;;;;;;;2.93;1.40;;;;;;;;;;5050851;28;20044;-74
2023/08/06 11:19:16;;;;;;;2.67;1.33;;;;;;;;;;5047023;28;20278;-73
2023/08/06 11:21:43;;;;;;;4.38;1.55;;;;;;;;;;5049370;28;20371;-73
2023/08/06 11:24:09;;;;;;;3.80;1.50;;;;;;;;;;5051814;28;20488;-73
2023/08/06 11:26:36;;;;;;;4.50;1.40;;;;;;;;;;5052229;28;20060;-73
2023/08/06 11:29:02;;;;;;;6.78;2.15;;;;;;;;;;5049158;28;20017;-73
2023/08/06 11:31:27;;;;;;;3.03;1.58;;;;;;;;;;5050108;28;20045;-74
2023/08/06 11:33:53;;;;;;;5.72;1.90;;;;;;;;;;5051928;28;20067;-74
2023/08/06 11:36:28;;;;;;;4.30;1.88;;;;;;;;;;5047026;28;20032;-74
2023/08/06 11:38:53;;;;;;;8.88;2.92;;;;;;;;;;5049089;28;20478;-74
2023/08/06 11:41:18;;;;;;;7.27;2.57;;;;;;;;;;5050518;28;20035;-74
2023/08/06 11:43:45;;;;;;;9.73;3.13;;;;;;;;;;5049359;28;20272;-74
2023/08/06 11:46:11;;;;;;;8.45;3.00;;;;;;;;;;5049366;28;20380;-74
2023/08/06 11:48:50;;;;;;;7.28;2.65;;;;;;;;;;5049512;28;20100;-73
2023/08/06 11:51:15;;;;;;;8.30;2.97;;;;;;;;;;5049056;28;20028;-73
2023/08/06 11:53:40;;;;;;;14.17;2.97;;;;;;;;;;5050772;28;20032;-74
2023/08/06 11:56:06;;;;;;;6.10;2.95;;;;;;;;;;5051806;28;20264;-74
2023/08/06 11:58:31;;;;;;;11.75;3.88;;;;;;;;;;5049277;28;20016;-74
2023/08/06 12:00:57;;;;;;;12.98;3.10;;;;;;;;;;5049859;28;20023;-74
2023/08/06 12:03:27;;;;;;;11.13;4.53;;;;;;;;;;5049233;28;20021;-74
2023/08/06 12:05:53;;;;;;;7.93;3.73;;;;;;;;;;5051247;28;20154;-74
2023/08/06 12:08:19;;;;;;;10.75;3.38;;;;;;;;;;5044955;28;20033;-74
2023/08/06 12:10:44;;;;;;;12.02;3.28;;;;;;;;;;5032325;28;20021;-74
2023/08/06 12:13:09;;;;;;;9.57;3.55;;;;;;;;;;5050208;28;20074;-74
2023/08/06 12:15:34;;;;;;;10.75;3.50;;;;;;;;;;5050307;28;20017;-74
2023/08/06 12:18:00;;;;;;;10.97;3.60;;;;;;;;;;5049495;28;20021;-74
2023/08/06 12:20:25;;;;;;;10.10;3.45;;;;;;;;;;5049491;28;20304;-74
2023/08/06 12:22:50;;;;;;;17.20;3.63;;;;;;;;;;5050649;28;20025;-74
2023/08/06 12:25:15;;;;;;;6.88;3.10;;;;;;;;;;5050616;28;20024;-74
2023/08/06 12:27:42;;;;;;;8.90;3.13;;;;;;;;;;5049129;28;20024;-74
2023/08/06 12:30:07;;;;;;;8.13;2.50;;;;;;;;;;5048819;28;20187;-74
2023/08/06 12:32:33;;;;;;;8.35;2.60;;;;;;;;;;5048492;28;20104;-74
2023/08/06 12:34:58;;;;;;;4.72;2.25;;;;;;;;;;5050843;28;20092;-74
2023/08/06 12:37:24;;;;;;;6.93;2.25;;;;;;;;;;5047709;28;20044;-75
2023/08/06 12:39:50;;;;;;;7.18;2.28;;;;;;;;;;5050396;28;20017;-74
2023/08/06 12:42:15;;;;;;;7.13;2.97;;;;;;;;;;5048832;28;20021;-74
2023/08/06 12:44:40;;;;;;;8.40;2.30;;;;;;;;;;5050350;28;20060;-75
2023/08/06 12:47:06;;;;;;;9.47;2.47;;;;;;;;;;5049533;28;20296;-75
2023/08/06 12:49:33;;;;;;;6.50;2.38;;;;;;;;;;5048769;28;20263;-74
2023/08/06 12:51:59;;;;;;;5.90;1.85;;;;;;;;;;5045243;28;20112;-75
2023/08/06 12:54:24;;;;;;;6.45;2.38;;;;;;;;;;5048361;28;20489;-74
2023/08/06 12:56:50;;;;;;;9.10;2.30;;;;;;;;;;5048198;28;20056;-73
2023/08/06 12:59:16;;;;;;;9.63;2.17;;;;;;;;;;5049677;28;20259;-74
2023/08/06 13:01:41;;;;;;;5.25;2.10;;;;;;;;;;5045257;28;20025;-74
2023/08/06 13:04:06;;;;;;;8.13;2.30;;;;;;;;;;5048140;28;20029;-74
2023/08/06 13:06:36;;;;;;;4.95;2.22;;;;;;;;;;5046299;28;20033;-74
2023/08/06 13:09:05;;;;;;;6.22;2.33;;;;;;;;;;5047383;28;20049;-74
2023/08/06 13:11:31;;;;;;;8.68;2.42;;;;;;;;;;5045999;28;20472;-74
2023/08/06 13:14:04;;;;;;;5.78;1.98;;;;;;;;;;5046128;28;20029;-73
2023/08/06 13:16:29;;;;;;;3.75;1.92;;;;;;;;;;5045606;28;20013;-74
2023/08/06 13:18:54;;;;;;;7.10;2.20;;;;;;;;;;5047130;28;20013;-74
2023/08/06 13:21:19;;;;;;;7.30;2.53;;;;;;;;;;5046205;28;20119;-74
2023/08/06 13:23:44;;;;;;;3.90;2.30;;;;;;;;;;5047760;28;20278;-74
2023/08/06 13:26:10;;;;;;;6.47;2.73;;;;;;;;;;5045762;28;21046;-74
2023/08/06 13:28:35;;;;;;;5.13;2.00;;;;;;;;;;5045592;28;20268;-74
2023/08/06 13:31:01;;;;;;;4.70;2.30;;;;;;;;;;5044107;28;20501;-73
2023/08/06 13:33:26;;;;;;;6.63;2.40;;;;;;;;;;5044452;28;20287;-74
2023/08/06 13:35:52;;;;;;;5.05;1.98;;;;;;;;;;5043359;28;20024;-74
2023/08/06 13:38:17;;;;;;;3.47;1.70;;;;;;;;;;5046251;28;20462;-74
2023/08/06 13:40:44;;;;;;;5.20;1.87;;;;;;;;;;5045799;28;20021;-74
2023/08/06 13:43:09;;;;;;;6.30;2.33;;;;;;;;;;5046706;28;20453;-73
2023/08/06 13:45:34;;;;;;;6.47;2.00;;;;;;;;;;5041675;28;20013;-73
2023/08/06 13:48:00;;;;;;;5.47;1.73;;;;;;;;;;5046660;28;20060;-73
2023/08/06 13:50:26;;;;;;;4.85;2.05;;;;;;;;;;5047070;28;20071;-73
2023/08/06 13:52:52;;;;;;;5.35;2.35;;;;;;;;;;5045918;28;20029;-73
2023/08/06 13:55:18;;;;;;;4.57;1.77;;;;;;;;;;5045447;28;20098;-72
2023/08/06 13:57:43;;;;;;;4.40;1.50;;;;;;;;;;5046129;28;20465;-73
2023/08/06 14:00:08;;;;;;;8.20;1.95;;;;;;;;;;5045794;28;20096;-73
2023/08/06 14:02:34;;;;;;;4.47;1.88;;;;;;;;;;5044529;28;20032;-73
2023/08/06 14:04:59;;;;;;;4.60;1.70;;;;;;;;;;5041625;28;20021;-72
2023/08/06 14:07:24;;;;;;;6.47;2.75;;;;;;;;;;5041921;28;20648;-73
2023/08/06 14:09:49;;;;;;;5.80;2.17;;;;;;;;;;5037421;28;20033;-74
2023/08/06 14:12:14;;;;;;;5.57;2.47;;;;;;;;;;5041196;28;20032;-72
2023/08/06 14:14:40;;;;;;;4.73;1.80;;;;;;;;;;5022817;28;20031;-72
2023/08/06 14:17:05;;;;;;;3.42;2.33;;;;;;;;;;5040319;28;20267;-73
2023/08/06 14:19:30;;;;;;;11.23;2.17;;;;;;;;;;5042647;28;20466;-73
2023/08/06 14:21:55;;;;;;;12.77;2.20;;;;;;;;;;5028208;28;20025;-73
2023/08/06 14:24:21;;;;;;;9.00;2.88;;;;;;;;;;5046956;28;20279;-72
2023/08/06 14:26:46;;;;;;;7.78;2.05;;;;;;;;;;5048348;28;20032;-72
2023/08/06 14:29:13;;;;;;;7.67;2.10;;;;;;;;;;5044748;28;20068;-72
2023/08/06 14:31:38;;;;;;;8.88;3.15;;;;;;;;;;5044521;28;20306;-73
2023/08/06 14:34:03;;;;;;;7.50;2.40;;;;;;;;;;5045582;28;20052;-72